Interlachen, Florida
Current Conditions -  °F | °C
As of 2:35 PM on Monday 22 Dec 2014 (Local Time) from K28J Reporting Station
Overcast Overcast  
Wind Chill: 73°   Ceiling: 2500
Heat Index: 73°   Visibility: 10mi
Dew Point: 68°   Wind: 9mph
Humidity: 83%   Direction: 180°S
Pressure: 29.9"   Gusts: NA
Location:  29.62°N, 81.9°W
Report Text: K28J 221935Z AUTO 18008KT 10SM OVC025 23/20 A2990 RMK AO2 LTG DSNT NE
Loading
Personal Weather Stations






























Interactive Weather Map New forecast layout! Learn more

10-Day Weather Forecast

Advertisements
Track Severe Weather on mobile